Time;durP1;ratioP1;P1;durP2;ratioP2;P2;SDS_P1;SDS_P2;PMS_P1;PMS_P2;Temp;Humidity;BMP_temperature;BMP_pressure;BME280_temperature;BME280_humidity;BME280_pressure;Samples;Min_cycle;Max_cycle;Signal;HPM_P1;HPM_P2
2022/04/30 00:00:13;;;;;;;1999.90;999.90;;;;;;;;;;5059250;28;20476;-70
2022/04/30 00:02:41;;;;;;;1999.90;999.90;;;;;;;;;;5094224;27;20227;-69
2022/04/30 00:05:10;;;;;;;1999.90;999.90;;;;;;;;;;5064164;28;20310;-69
2022/04/30 00:07:38;;;;;;;1999.90;999.90;;;;;;;;;;5061874;28;20289;-70
2022/04/30 00:10:07;;;;;;;1999.90;999.90;;;;;;;;;;5058964;28;20684;-69
2022/04/30 00:12:35;;;;;;;1999.90;999.90;;;;;;;;;;5058871;28;20801;-69
2022/04/30 00:15:02;;;;;;;1999.90;999.90;;;;;;;;;;5073910;28;20227;-69
2022/04/30 00:17:30;;;;;;;1999.90;999.90;;;;;;;;;;5057984;28;20240;-70
2022/04/30 00:19:58;;;;;;;1999.90;999.90;;;;;;;;;;5063045;28;20227;-69
2022/04/30 00:22:27;;;;;;;1999.90;999.90;;;;;;;;;;5096490;27;20230;-68
2022/04/30 00:24:54;;;;;;;1999.90;999.90;;;;;;;;;;5058650;28;20707;-69
2022/04/30 00:27:22;;;;;;;1999.90;999.90;;;;;;;;;;5056424;28;21048;-68
2022/04/30 00:29:50;;;;;;;1999.90;999.90;;;;;;;;;;5056455;28;20262;-69
2022/04/30 00:32:18;;;;;;;1999.90;999.90;;;;;;;;;;5058435;28;20315;-68
2022/04/30 00:34:46;;;;;;;1999.90;999.90;;;;;;;;;;5096050;27;20224;-69
2022/04/30 00:37:14;;;;;;;1999.90;999.90;;;;;;;;;;5066676;28;20301;-69
2022/04/30 00:39:42;;;;;;;1999.90;999.90;;;;;;;;;;5063420;28;20284;-69
2022/04/30 00:42:11;;;;;;;1999.90;999.90;;;;;;;;;;5062140;28;20817;-69
2022/04/30 00:44:39;;;;;;;1999.90;999.90;;;;;;;;;;5101471;27;20737;-69
2022/04/30 00:47:07;;;;;;;1999.90;999.90;;;;;;;;;;5059917;28;20852;-68
2022/04/30 00:49:34;;;;;;;1999.90;999.90;;;;;;;;;;5067932;28;20787;-68
2022/04/30 00:52:03;;;;;;;1999.90;999.90;;;;;;;;;;5064656;28;20805;-69
2022/04/30 00:54:33;;;;;;;1999.90;999.90;;;;;;;;;;5078031;27;20224;-69
2022/04/30 00:57:03;;;;;;;1999.90;999.90;;;;;;;;;;5066490;28;20334;-69
2022/04/30 00:59:31;;;;;;;1999.90;999.90;;;;;;;;;;5082771;27;20326;-69
2022/04/30 01:01:59;;;;;;;1999.90;999.90;;;;;;;;;;5069069;28;20313;-68
2022/04/30 01:04:47;;;;;;;1999.90;999.90;;;;;;;;;;5059595;28;20315;-69
2022/04/30 01:07:14;;;;;;;1999.90;999.90;;;;;;;;;;5103093;27;21024;-68
2022/04/30 01:09:43;;;;;;;1999.90;999.90;;;;;;;;;;5096643;27;20239;-69
2022/04/30 01:12:13;;;;;;;1999.90;999.90;;;;;;;;;;5070337;28;20255;-71
2022/04/30 01:14:41;;;;;;;1999.90;999.90;;;;;;;;;;5069153;28;20255;-68
2022/04/30 01:17:11;;;;;;;1999.90;999.90;;;;;;;;;;5066058;28;20281;-68
2022/04/30 01:19:39;;;;;;;1999.90;999.90;;;;;;;;;;5072237;28;20246;-69
2022/04/30 01:22:10;;;;;;;1999.90;999.90;;;;;;;;;;5067117;28;20235;-69
2022/04/30 01:24:39;;;;;;;1999.90;999.90;;;;;;;;;;5071718;28;20250;-69
2022/04/30 01:27:07;;;;;;;1999.90;999.90;;;;;;;;;;5065555;28;20305;-69
2022/04/30 01:29:36;;;;;;;1999.90;999.90;;;;;;;;;;5064896;28;20420;-69
2022/04/30 01:37:37;;;;;;;1999.90;999.90;;;;;;;;;;5070262;28;20725;-69
2022/04/30 01:40:06;;;;;;;1999.90;999.90;;;;;;;;;;5046723;28;20231;-68
2022/04/30 01:42:35;;;;;;;1999.90;999.90;;;;;;;;;;5062439;28;22045;-68
2022/04/30 01:45:04;;;;;;;1999.90;999.90;;;;;;;;;;5098882;27;20226;-69
2022/04/30 01:47:33;;;;;;;1999.90;999.90;;;;;;;;;;5106523;27;20793;-69
2022/04/30 01:50:01;;;;;;;1999.90;999.90;;;;;;;;;;5100713;27;20231;-69
2022/04/30 01:52:29;;;;;;;1999.90;999.90;;;;;;;;;;5068826;28;20242;-70
2022/04/30 01:54:58;;;;;;;1999.90;999.90;;;;;;;;;;5066219;28;20277;-70
2022/04/30 01:57:27;;;;;;;1999.90;999.90;;;;;;;;;;5048716;28;20222;-70
2022/04/30 01:59:55;;;;;;;1999.90;999.90;;;;;;;;;;5102800;27;20275;-69
2022/04/30 02:02:28;;;;;;;1999.90;999.90;;;;;;;;;;5065024;28;20224;-70
2022/04/30 02:04:58;;;;;;;1999.90;999.90;;;;;;;;;;5069563;28;21189;-77
2022/04/30 02:07:27;;;;;;;1999.90;999.90;;;;;;;;;;5069285;28;22079;-74
2022/04/30 02:09:54;;;;;;;1999.90;999.90;;;;;;;;;;5068597;28;20258;-71
2022/04/30 02:12:22;;;;;;;1999.90;999.90;;;;;;;;;;5101751;27;20327;-70
2022/04/30 02:14:52;;;;;;;1999.90;999.90;;;;;;;;;;5069992;28;20266;-69
2022/04/30 02:17:20;;;;;;;1999.90;999.90;;;;;;;;;;5067057;28;20247;-73
2022/04/30 02:22:38;;;;;;;1999.90;999.90;;;;;;;;;;5097577;27;21216;-70
2022/04/30 02:25:09;;;;;;;1999.90;999.90;;;;;;;;;;5105428;27;20923;-68
2022/04/30 02:27:37;;;;;;;1999.90;999.90;;;;;;;;;;5062715;28;20235;-68
2022/04/30 02:30:07;;;;;;;1999.90;999.90;;;;;;;;;;5102609;27;20748;-69
2022/04/30 02:32:42;;;;;;;1999.90;999.90;;;;;;;;;;5061550;28;20744;-69
2022/04/30 02:35:09;;;;;;;1999.90;999.90;;;;;;;;;;5063043;28;20235;-68
2022/04/30 02:37:37;;;;;;;1999.90;999.90;;;;;;;;;;5067697;28;20350;-69
2022/04/30 02:40:06;;;;;;;1999.90;999.90;;;;;;;;;;5070297;28;20318;-68
2022/04/30 02:42:34;;;;;;;1999.90;999.90;;;;;;;;;;5061461;28;20243;-69
2022/04/30 02:45:01;;;;;;;1999.90;999.90;;;;;;;;;;5096243;27;21067;-69
2022/04/30 02:47:30;;;;;;;1999.90;999.90;;;;;;;;;;5094929;27;20304;-68
2022/04/30 02:49:58;;;;;;;1999.90;999.90;;;;;;;;;;5098897;27;20314;-69
2022/04/30 02:52:25;;;;;;;1999.90;999.90;;;;;;;;;;5071559;28;20353;-68
2022/04/30 02:54:53;;;;;;;1999.90;999.90;;;;;;;;;;5064468;28;20255;-69
2022/04/30 02:57:21;;;;;;;1999.90;999.90;;;;;;;;;;5061182;28;20687;-70
2022/04/30 02:59:53;;;;;;;1999.90;999.90;;;;;;;;;;5062422;28;20235;-69
2022/04/30 03:02:42;;;;;;;1999.90;999.90;;;;;;;;;;5062953;28;20527;-70
2022/04/30 03:05:10;;;;;;;1999.90;999.90;;;;;;;;;;5061315;28;20224;-69
2022/04/30 03:07:45;;;;;;;1999.90;999.90;;;;;;;;;;5064723;28;20281;-70
2022/04/30 03:10:12;;;;;;;1999.90;999.90;;;;;;;;;;5063828;28;20238;-72
2022/04/30 03:12:40;;;;;;;1999.90;999.90;;;;;;;;;;5065656;28;20226;-69
2022/04/30 03:15:09;;;;;;;1999.90;999.90;;;;;;;;;;5058520;28;20335;-69
2022/04/30 03:23:08;;;;;;;1999.90;999.90;;;;;;;;;;5067194;28;20230;-69
2022/04/30 03:25:36;;;;;;;1999.90;999.90;;;;;;;;;;5060926;28;20228;-69
2022/04/30 03:28:04;;;;;;;1999.90;999.90;;;;;;;;;;5094112;27;20282;-69
2022/04/30 03:30:32;;;;;;;1999.90;999.90;;;;;;;;;;5059581;28;20994;-69
2022/04/30 03:32:59;;;;;;;1999.90;999.90;;;;;;;;;;5064250;28;21324;-69
2022/04/30 03:35:28;;;;;;;1999.90;999.90;;;;;;;;;;5095446;27;20241;-69
2022/04/30 03:37:56;;;;;;;1999.90;999.90;;;;;;;;;;5064094;28;20236;-69
2022/04/30 03:40:23;;;;;;;1999.90;999.90;;;;;;;;;;5106896;27;20251;-71
2022/04/30 03:42:51;;;;;;;1999.90;999.90;;;;;;;;;;5069561;28;20227;-70
2022/04/30 03:45:19;;;;;;;1999.90;999.90;;;;;;;;;;5096093;27;21063;-70
2022/04/30 03:47:47;;;;;;;1999.90;999.90;;;;;;;;;;5065104;28;20266;-68
2022/04/30 03:50:14;;;;;;;1999.90;999.90;;;;;;;;;;5102861;27;21123;-68
2022/04/30 03:52:43;;;;;;;1999.90;999.90;;;;;;;;;;5097256;27;20235;-68
2022/04/30 03:55:11;;;;;;;1999.90;999.90;;;;;;;;;;5095401;27;20277;-69
2022/04/30 03:57:39;;;;;;;1999.90;999.90;;;;;;;;;;5099547;27;20231;-68
2022/04/30 04:00:08;;;;;;;1999.90;999.90;;;;;;;;;;5065315;28;20285;-67
2022/04/30 04:02:43;;;;;;;1999.90;999.90;;;;;;;;;;5061217;28;20227;-69
2022/04/30 04:05:12;;;;;;;1999.90;999.90;;;;;;;;;;5065941;28;20223;-68
2022/04/30 04:07:40;;;;;;;1999.90;999.90;;;;;;;;;;5069363;28;20242;-67
2022/04/30 04:10:10;;;;;;;1999.90;999.90;;;;;;;;;;5069585;28;20233;-70
2022/04/30 04:12:37;;;;;;;1999.90;999.90;;;;;;;;;;5073568;28;20227;-68
2022/04/30 04:17:51;;;;;;;1999.90;999.90;;;;;;;;;;5063809;28;20667;-69
2022/04/30 04:20:22;;;;;;;1999.90;999.90;;;;;;;;;;5048915;28;20267;-71
2022/04/30 04:22:54;;;;;;;1999.90;999.90;;;;;;;;;;5068600;28;20223;-69
2022/04/30 04:28:08;;;;;;;1999.90;999.90;;;;;;;;;;5065009;28;20224;-70
2022/04/30 04:30:36;;;;;;;1999.90;999.90;;;;;;;;;;5063468;28;20231;-71
2022/04/30 04:33:04;;;;;;;1999.90;999.90;;;;;;;;;;5070611;28;20235;-72
2022/04/30 04:35:31;;;;;;;1999.90;999.90;;;;;;;;;;5073165;28;20491;-69
2022/04/30 04:37:59;;;;;;;1999.90;999.90;;;;;;;;;;5064686;28;20662;-71
2022/04/30 04:40:28;;;;;;;1999.90;999.90;;;;;;;;;;5104699;27;20251;-71
2022/04/30 04:42:55;;;;;;;1999.90;999.90;;;;;;;;;;5067119;28;20239;-71
2022/04/30 04:45:26;;;;;;;1999.90;999.90;;;;;;;;;;5105432;27;20223;-73
2022/04/30 04:47:54;;;;;;;1999.90;999.90;;;;;;;;;;5102465;27;20289;-70
2022/04/30 04:50:23;;;;;;;1999.90;999.90;;;;;;;;;;5064855;28;20223;-70
2022/04/30 04:52:51;;;;;;;1999.90;999.90;;;;;;;;;;5062530;28;20925;-70
2022/04/30 04:55:19;;;;;;;1999.90;999.90;;;;;;;;;;5060945;28;20312;-72
2022/04/30 04:57:48;;;;;;;1999.90;999.90;;;;;;;;;;5066918;28;20305;-71
2022/04/30 05:00:16;;;;;;;1999.90;999.90;;;;;;;;;;5094967;27;20243;-70
2022/04/30 05:02:44;;;;;;;1999.90;999.90;;;;;;;;;;5066180;28;20293;-69
2022/04/30 05:05:12;;;;;;;1999.90;999.90;;;;;;;;;;5065977;28;20628;-70
2022/04/30 05:07:39;;;;;;;1999.90;999.90;;;;;;;;;;5068096;28;20360;-70
2022/04/30 05:10:07;;;;;;;1999.90;999.90;;;;;;;;;;5099158;27;20264;-69
2022/04/30 05:12:35;;;;;;;1999.90;999.90;;;;;;;;;;5062173;28;20232;-71
2022/04/30 05:15:04;;;;;;;1999.90;999.90;;;;;;;;;;5079961;27;20231;-71
2022/04/30 05:17:32;;;;;;;1999.90;999.90;;;;;;;;;;5066227;28;20322;-71
2022/04/30 05:20:00;;;;;;;1999.90;999.90;;;;;;;;;;5071205;28;20729;-70
2022/04/30 05:22:27;;;;;;;1999.90;999.90;;;;;;;;;;5070261;28;20224;-71
2022/04/30 05:24:55;;;;;;;1999.90;999.90;;;;;;;;;;5072925;28;20299;-71
2022/04/30 05:27:23;;;;;;;1999.90;999.90;;;;;;;;;;5067029;28;20234;-71
2022/04/30 05:29:50;;;;;;;1999.90;999.90;;;;;;;;;;5069316;28;20223;-71
2022/04/30 05:32:19;;;;;;;1999.90;999.90;;;;;;;;;;5064200;28;20232;-70
2022/04/30 05:34:47;;;;;;;1999.90;999.90;;;;;;;;;;5098226;27;20234;-70
2022/04/30 05:37:15;;;;;;;1999.90;999.90;;;;;;;;;;5063215;28;20257;-71
2022/04/30 05:39:42;;;;;;;1999.90;999.90;;;;;;;;;;5095983;27;20231;-70
2022/04/30 05:42:10;;;;;;;1999.90;999.90;;;;;;;;;;5062303;28;20873;-71
2022/04/30 05:44:38;;;;;;;1999.90;999.90;;;;;;;;;;5065141;28;20341;-71
2022/04/30 05:47:05;;;;;;;1999.90;999.90;;;;;;;;;;5091680;27;20238;-71
2022/04/30 05:49:35;;;;;;;1999.90;999.90;;;;;;;;;;5058717;28;20220;-71
2022/04/30 05:52:02;;;;;;;1999.90;999.90;;;;;;;;;;5065487;28;20235;-69
2022/04/30 05:54:30;;;;;;;1999.90;999.90;;;;;;;;;;5066151;28;20230;-69
2022/04/30 05:56:57;;;;;;;1999.90;999.90;;;;;;;;;;5059806;28;20310;-69
2022/04/30 05:59:25;;;;;;;1999.90;999.90;;;;;;;;;;5060133;28;21294;-70
2022/04/30 06:01:53;;;;;;;1999.90;999.90;;;;;;;;;;5061338;28;20243;-71
2022/04/30 06:04:21;;;;;;;1999.90;999.90;;;;;;;;;;5063957;28;20232;-71
2022/04/30 06:06:50;;;;;;;1999.90;999.90;;;;;;;;;;5065616;28;21254;-71
2022/04/30 06:09:19;;;;;;;1999.90;999.90;;;;;;;;;;5063387;28;20285;-71
2022/04/30 06:11:47;;;;;;;1999.90;999.90;;;;;;;;;;5099566;27;20255;-71
2022/04/30 06:14:15;;;;;;;1999.90;999.90;;;;;;;;;;5067612;28;20228;-71
2022/04/30 06:16:42;;;;;;;1999.90;999.90;;;;;;;;;;5095680;27;20224;-72
2022/04/30 06:19:10;;;;;;;1999.90;999.90;;;;;;;;;;5095868;27;20238;-71
2022/04/30 06:21:39;;;;;;;1999.90;999.90;;;;;;;;;;5094329;27;20242;-72
2022/04/30 06:24:08;;;;;;;1999.90;999.90;;;;;;;;;;5061296;28;20290;-71
2022/04/30 06:26:36;;;;;;;1999.90;999.90;;;;;;;;;;5058687;28;20375;-71
2022/04/30 06:29:04;;;;;;;1999.90;999.90;;;;;;;;;;5092422;27;20228;-72
2022/04/30 06:31:31;;;;;;;1999.90;999.90;;;;;;;;;;5060440;28;20224;-71
2022/04/30 06:33:59;;;;;;;1999.90;999.90;;;;;;;;;;5094454;27;20232;-71
2022/04/30 06:36:26;;;;;;;1999.90;999.90;;;;;;;;;;5099432;27;20324;-71
2022/04/30 06:38:54;;;;;;;1999.90;999.90;;;;;;;;;;5062884;28;20310;-71
2022/04/30 06:41:23;;;;;;;1999.90;999.90;;;;;;;;;;5062401;28;20668;-70
2022/04/30 06:43:51;;;;;;;1999.90;999.90;;;;;;;;;;5059162;28;20227;-71
2022/04/30 06:46:19;;;;;;;1999.90;999.90;;;;;;;;;;5093521;27;20263;-71
2022/04/30 06:48:46;;;;;;;1999.90;999.90;;;;;;;;;;5057258;28;20240;-70
2022/04/30 06:51:14;;;;;;;1999.90;999.90;;;;;;;;;;5058559;28;21101;-70
2022/04/30 06:59:14;;;;;;;1999.90;999.90;;;;;;;;;;5090467;27;20231;-71
2022/04/30 07:01:48;;;;;;;1999.90;999.90;;;;;;;;;;5058786;28;20239;-70
2022/04/30 07:04:17;;;;;;;1999.90;999.90;;;;;;;;;;5065065;28;20242;-69
2022/04/30 07:06:46;;;;;;;1999.90;999.90;;;;;;;;;;5057128;28;20306;-70
2022/04/30 07:09:14;;;;;;;1999.90;999.90;;;;;;;;;;5058342;28;20394;-69
2022/04/30 07:11:44;;;;;;;1999.90;999.90;;;;;;;;;;5094898;27;20230;-68
2022/04/30 07:14:12;;;;;;;1999.90;999.90;;;;;;;;;;5043104;28;20220;-69
2022/04/30 07:16:40;;;;;;;1999.90;999.90;;;;;;;;;;5059757;28;20315;-70
2022/04/30 07:19:07;;;;;;;1999.90;999.90;;;;;;;;;;5063309;28;20313;-69
2022/04/30 07:21:35;;;;;;;1999.90;999.90;;;;;;;;;;5042916;28;20690;-69
2022/04/30 07:24:03;;;;;;;1999.90;999.90;;;;;;;;;;5059316;28;20219;-70
2022/04/30 07:26:30;;;;;;;1999.90;999.90;;;;;;;;;;5065009;28;20226;-70
2022/04/30 07:28:59;;;;;;;1999.90;999.90;;;;;;;;;;5100849;27;20719;-71
2022/04/30 07:31:27;;;;;;;1999.90;999.90;;;;;;;;;;5103043;27;20292;-70
2022/04/30 07:33:54;;;;;;;1999.90;999.90;;;;;;;;;;5061352;28;20231;-70
2022/04/30 07:36:22;;;;;;;1999.90;999.90;;;;;;;;;;5066940;28;20232;-70
2022/04/30 07:38:50;;;;;;;1999.90;999.90;;;;;;;;;;5061934;28;20239;-71
2022/04/30 07:41:18;;;;;;;1999.90;999.90;;;;;;;;;;5062810;28;20330;-70
2022/04/30 07:43:45;;;;;;;1999.90;999.90;;;;;;;;;;5095346;27;20277;-69
2022/04/30 07:46:14;;;;;;;1999.90;999.90;;;;;;;;;;5095736;27;20315;-69
2022/04/30 07:48:42;;;;;;;1999.90;999.90;;;;;;;;;;5060402;28;20707;-69
2022/04/30 07:51:14;;;;;;;1999.90;999.90;;;;;;;;;;5056050;28;20398;-69
2022/04/30 07:53:42;;;;;;;1999.90;999.90;;;;;;;;;;5059816;28;21014;-71
2022/04/30 07:56:10;;;;;;;1999.90;999.90;;;;;;;;;;5063978;28;20232;-69
2022/04/30 07:58:38;;;;;;;1999.90;999.90;;;;;;;;;;5095389;27;20242;-69
2022/04/30 08:01:06;;;;;;;1999.90;999.90;;;;;;;;;;5058025;28;20872;-71
2022/04/30 08:03:35;;;;;;;1999.90;999.90;;;;;;;;;;5097823;27;20230;-70
2022/04/30 08:06:03;;;;;;;1999.90;999.90;;;;;;;;;;5059240;28;20251;-70
2022/04/30 08:08:30;;;;;;;1999.90;999.90;;;;;;;;;;5061779;28;20312;-70
2022/04/30 08:10:58;;;;;;;1999.90;999.90;;;;;;;;;;5100095;27;20216;-70
2022/04/30 08:13:26;;;;;;;1999.90;999.90;;;;;;;;;;5060041;28;20853;-70
2022/04/30 08:15:54;;;;;;;1999.90;999.90;;;;;;;;;;5092368;27;20240;-71
2022/04/30 08:18:21;;;;;;;1999.90;999.90;;;;;;;;;;5096412;27;20238;-72
2022/04/30 08:20:50;;;;;;;1999.90;999.90;;;;;;;;;;5065671;28;20235;-71
2022/04/30 08:23:18;;;;;;;1999.90;999.90;;;;;;;;;;5065913;28;20235;-70
2022/04/30 08:25:46;;;;;;;1999.90;999.90;;;;;;;;;;5064317;28;20598;-71
2022/04/30 08:28:13;;;;;;;1999.90;999.90;;;;;;;;;;5063803;28;20227;-71
2022/04/30 08:30:41;;;;;;;1999.90;999.90;;;;;;;;;;5081357;27;20325;-71
2022/04/30 08:33:09;;;;;;;1999.90;999.90;;;;;;;;;;5059025;28;20232;-71
2022/04/30 08:35:37;;;;;;;1999.90;999.90;;;;;;;;;;5058684;28;20238;-70
2022/04/30 08:38:10;;;;;;;1999.90;999.90;;;;;;;;;;5096469;27;20323;-71
2022/04/30 08:40:38;;;;;;;1999.90;999.90;;;;;;;;;;5055602;28;21080;-71
2022/04/30 08:43:07;;;;;;;1999.90;999.90;;;;;;;;;;5057501;28;20508;-71
2022/04/30 08:45:36;;;;;;;1999.90;999.90;;;;;;;;;;5059862;28;20717;-69
2022/04/30 08:48:05;;;;;;;1999.90;999.90;;;;;;;;;;5060053;28;20236;-71
2022/04/30 08:50:33;;;;;;;1999.90;999.90;;;;;;;;;;5067685;28;20236;-70
2022/04/30 08:53:01;;;;;;;1999.90;999.90;;;;;;;;;;5059694;28;20216;-69
2022/04/30 08:55:30;;;;;;;1999.90;999.90;;;;;;;;;;5048787;28;20287;-71
2022/04/30 08:57:58;;;;;;;1999.90;999.90;;;;;;;;;;5061823;28;21209;-70
2022/04/30 09:00:26;;;;;;;1999.90;999.90;;;;;;;;;;5093341;27;20246;-70
2022/04/30 09:02:55;;;;;;;1999.90;999.90;;;;;;;;;;5062917;28;20672;-69
2022/04/30 09:05:29;;;;;;;1999.90;999.90;;;;;;;;;;5064121;28;20228;-71
2022/04/30 09:07:58;;;;;;;1999.90;999.90;;;;;;;;;;5064989;28;20297;-71
2022/04/30 09:10:27;;;;;;;1999.90;999.90;;;;;;;;;;5061146;28;20238;-71
2022/04/30 09:13:05;;;;;;;1999.90;999.90;;;;;;;;;;5061119;28;20235;-71
2022/04/30 09:15:33;;;;;;;1999.90;999.90;;;;;;;;;;5061560;28;20235;-71
2022/04/30 09:18:01;;;;;;;1999.90;999.90;;;;;;;;;;5093387;27;20223;-70
2022/04/30 09:20:30;;;;;;;1999.90;999.90;;;;;;;;;;5061639;28;20239;-70
2022/04/30 09:22:58;;;;;;;1999.90;999.90;;;;;;;;;;5045481;28;20228;-70
2022/04/30 09:25:25;;;;;;;1999.90;999.90;;;;;;;;;;5097414;27;20231;-70
2022/04/30 09:28:03;;;;;;;1999.90;999.90;;;;;;;;;;5065108;28;20236;-71
2022/04/30 09:30:32;;;;;;;1999.90;999.90;;;;;;;;;;5063234;28;20307;-71
2022/04/30 09:33:01;;;;;;;1999.90;999.90;;;;;;;;;;5060584;28;20970;-69
2022/04/30 09:38:15;;;;;;;1999.90;999.90;;;;;;;;;;5072791;28;20736;-71
2022/04/30 09:40:52;;;;;;;1999.90;999.90;;;;;;;;;;5066319;28;20228;-71
2022/04/30 09:43:21;;;;;;;1999.90;999.90;;;;;;;;;;5067607;28;20233;-68
2022/04/30 09:45:50;;;;;;;1999.90;999.90;;;;;;;;;;5067681;28;20239;-69
2022/04/30 09:54:00;;;;;;;1999.90;999.90;;;;;;;;;;5043053;28;20308;-71
2022/04/30 09:56:33;;;;;;;1999.90;999.90;;;;;;;;;;5101272;27;20670;-69
2022/04/30 09:59:03;;;;;;;1999.90;999.90;;;;;;;;;;5103327;27;20227;-71
2022/04/30 10:01:34;;;;;;;1999.90;999.90;;;;;;;;;;5060531;28;20681;-70
2022/04/30 10:04:05;;;;;;;1999.90;999.90;;;;;;;;;;5060570;28;20236;-69
2022/04/30 10:06:34;;;;;;;1999.90;999.90;;;;;;;;;;5060815;28;20238;-69
2022/04/30 10:09:02;;;;;;;1999.90;999.90;;;;;;;;;;5094829;27;20235;-69
2022/04/30 10:11:34;;;;;;;1999.90;999.90;;;;;;;;;;5060295;28;20235;-69
2022/04/30 10:14:10;;;;;;;1999.90;999.90;;;;;;;;;;5093914;27;20224;-70
2022/04/30 10:16:42;;;;;;;1999.90;999.90;;;;;;;;;;5094709;27;21297;-69
2022/04/30 10:19:20;;;;;;;1999.90;999.90;;;;;;;;;;5066214;28;20729;-69
2022/04/30 10:22:08;;;;;;;1999.90;999.90;;;;;;;;;;5068247;28;20237;-69
2022/04/30 10:24:35;;;;;;;1999.90;999.90;;;;;;;;;;5063983;28;20231;-70
2022/04/30 10:27:03;;;;;;;1999.90;999.90;;;;;;;;;;5061448;28;20231;-69
2022/04/30 10:29:31;;;;;;;1999.90;999.90;;;;;;;;;;5060006;28;20290;-70
2022/04/30 10:32:00;;;;;;;1999.90;999.90;;;;;;;;;;5058181;28;20234;-70
2022/04/30 10:34:31;;;;;;;1999.90;999.90;;;;;;;;;;5092553;27;20228;-70
2022/04/30 10:37:01;;;;;;;1999.90;999.90;;;;;;;;;;5061135;28;20235;-69
2022/04/30 10:39:29;;;;;;;1999.90;999.90;;;;;;;;;;5092914;27;20326;-69
2022/04/30 10:41:57;;;;;;;1999.90;999.90;;;;;;;;;;5100673;27;20238;-71
2022/04/30 10:44:28;;;;;;;1999.90;999.90;;;;;;;;;;5071751;28;20239;-70
2022/04/30 10:46:56;;;;;;;1999.90;999.90;;;;;;;;;;5090939;27;21124;-70
2022/04/30 10:49:25;;;;;;;1999.90;999.90;;;;;;;;;;5101826;27;20227;-72
2022/04/30 10:51:54;;;;;;;1999.90;999.90;;;;;;;;;;5092140;27;20617;-70
2022/04/30 10:54:23;;;;;;;1999.90;999.90;;;;;;;;;;5059364;28;20313;-70
2022/04/30 10:56:58;;;;;;;1999.90;999.90;;;;;;;;;;5041697;28;20232;-70
2022/04/30 10:59:26;;;;;;;1999.90;999.90;;;;;;;;;;5058916;28;21150;-70
2022/04/30 11:01:54;;;;;;;1999.90;999.90;;;;;;;;;;5063696;28;20232;-71
2022/04/30 11:04:22;;;;;;;1999.90;999.90;;;;;;;;;;5059236;28;20232;-70
2022/04/30 11:06:52;;;;;;;1999.90;999.90;;;;;;;;;;5067892;28;20238;-71
2022/04/30 11:09:21;;;;;;;1999.90;999.90;;;;;;;;;;5096384;27;20777;-69
2022/04/30 11:11:49;;;;;;;1999.90;999.90;;;;;;;;;;5092856;27;20270;-70
2022/04/30 11:14:17;;;;;;;1999.90;999.90;;;;;;;;;;5099258;27;20274;-69
2022/04/30 11:16:46;;;;;;;1999.90;999.90;;;;;;;;;;5089401;27;20282;-69
2022/04/30 11:19:16;;;;;;;1999.90;999.90;;;;;;;;;;5092286;27;20293;-71
2022/04/30 11:21:45;;;;;;;1999.90;999.90;;;;;;;;;;5068045;28;20297;-69
2022/04/30 11:24:22;;;;;;;1999.90;999.90;;;;;;;;;;5095256;27;20252;-68
2022/04/30 11:26:53;;;;;;;1999.90;999.90;;;;;;;;;;5064921;28;20226;-69
2022/04/30 11:29:21;;;;;;;1999.90;999.90;;;;;;;;;;5058619;28;20683;-71
2022/04/30 11:31:51;;;;;;;1999.90;999.90;;;;;;;;;;5063303;28;20234;-68
2022/04/30 11:34:19;;;;;;;1999.90;999.90;;;;;;;;;;5061540;28;20232;-69
2022/04/30 11:36:47;;;;;;;1999.90;999.90;;;;;;;;;;5096321;27;20273;-70
2022/04/30 11:39:17;;;;;;;1999.90;999.90;;;;;;;;;;5100332;27;20971;-70
2022/04/30 11:41:45;;;;;;;1999.90;999.90;;;;;;;;;;5092984;27;20230;-69
2022/04/30 11:44:14;;;;;;;1999.90;999.90;;;;;;;;;;5101443;27;20240;-69
2022/04/30 11:46:42;;;;;;;1999.90;999.90;;;;;;;;;;5073908;27;20896;-70
2022/04/30 11:49:10;;;;;;;1999.90;999.90;;;;;;;;;;5066203;28;20247;-70
2022/04/30 11:51:57;;;;;;;1999.90;999.90;;;;;;;;;;5097357;27;20310;-68
2022/04/30 11:54:27;;;;;;;1999.90;999.90;;;;;;;;;;5095574;27;20277;-69
2022/04/30 11:56:57;;;;;;;1999.90;999.90;;;;;;;;;;5062545;28;20263;-69
2022/04/30 11:59:28;;;;;;;1999.90;999.90;;;;;;;;;;5099082;27;20228;-69
2022/04/30 12:01:59;;;;;;;1999.90;999.90;;;;;;;;;;5060481;28;21333;-68
2022/04/30 12:04:31;;;;;;;1999.90;999.90;;;;;;;;;;5058891;28;20595;-68
2022/04/30 12:06:59;;;;;;;1999.90;999.90;;;;;;;;;;5076508;27;20732;-68
2022/04/30 12:09:31;;;;;;;1999.90;999.90;;;;;;;;;;5058932;28;20224;-69
2022/04/30 12:11:59;;;;;;;1999.90;999.90;;;;;;;;;;5061303;28;20238;-69
2022/04/30 12:14:27;;;;;;;1999.90;999.90;;;;;;;;;;5067353;28;20643;-70
2022/04/30 12:16:57;;;;;;;1999.90;999.90;;;;;;;;;;5046683;28;20226;-70
2022/04/30 12:25:02;;;;;;;1999.90;999.90;;;;;;;;;;5027069;28;20232;-71
2022/04/30 12:27:30;;;;;;;1999.90;999.90;;;;;;;;;;5043212;28;20239;-70
2022/04/30 12:30:05;;;;;;;1999.90;999.90;;;;;;;;;;5061066;28;21149;-70
2022/04/30 12:32:34;;;;;;;1999.90;999.90;;;;;;;;;;5091438;27;20239;-70
2022/04/30 12:35:02;;;;;;;1999.90;999.90;;;;;;;;;;5064285;28;20811;-70
2022/04/30 12:37:30;;;;;;;1999.90;999.90;;;;;;;;;;5065546;28;20228;-69
2022/04/30 12:39:58;;;;;;;1999.90;999.90;;;;;;;;;;5062375;28;20250;-70
2022/04/30 12:42:27;;;;;;;1999.90;999.90;;;;;;;;;;5062965;28;20445;-68
2022/04/30 12:44:55;;;;;;;1999.90;999.90;;;;;;;;;;5098462;27;20399;-68
2022/04/30 12:47:22;;;;;;;1999.90;999.90;;;;;;;;;;5069961;28;20227;-69
2022/04/30 12:49:50;;;;;;;1999.90;999.90;;;;;;;;;;5075376;27;20413;-67
2022/04/30 12:52:17;;;;;;;1999.90;999.90;;;;;;;;;;5096836;27;20988;-67
2022/04/30 12:54:45;;;;;;;1999.90;999.90;;;;;;;;;;5064023;28;20541;-70
2022/04/30 12:57:13;;;;;;;1999.90;999.90;;;;;;;;;;5042242;28;20407;-70
2022/04/30 12:59:42;;;;;;;1999.90;999.90;;;;;;;;;;5061523;28;20232;-71
2022/04/30 13:02:10;;;;;;;1999.90;999.90;;;;;;;;;;5063004;28;20229;-71
2022/04/30 13:04:38;;;;;;;1999.90;999.90;;;;;;;;;;5063838;28;20244;-71
2022/04/30 13:07:06;;;;;;;1999.90;999.90;;;;;;;;;;5065808;28;20346;-67
2022/04/30 13:15:06;;;;;;;1999.90;999.90;;;;;;;;;;5062877;28;20223;-72
2022/04/30 13:17:34;;;;;;;1999.90;999.90;;;;;;;;;;5065533;28;20809;-74
2022/04/30 13:20:01;;;;;;;1999.90;999.90;;;;;;;;;;5065861;28;20228;-72
2022/04/30 13:22:29;;;;;;;1999.90;999.90;;;;;;;;;;5070480;28;20785;-70
2022/04/30 13:24:57;;;;;;;1999.90;999.90;;;;;;;;;;5067477;28;20740;-72
2022/04/30 13:27:24;;;;;;;1999.90;999.90;;;;;;;;;;5061010;28;20995;-72
2022/04/30 13:29:52;;;;;;;1999.90;999.90;;;;;;;;;;5099199;27;20227;-73
2022/04/30 13:32:22;;;;;;;1999.90;999.90;;;;;;;;;;5064843;28;20227;-76
2022/04/30 13:34:49;;;;;;;1999.90;999.90;;;;;;;;;;5069643;28;20262;-77
2022/04/30 13:37:17;;;;;;;1999.90;999.90;;;;;;;;;;5064817;28;21138;-75
2022/04/30 13:39:45;;;;;;;1999.90;999.90;;;;;;;;;;5066754;28;20227;-74
2022/04/30 13:42:13;;;;;;;1999.90;999.90;;;;;;;;;;5065840;28;20239;-73
2022/04/30 13:44:41;;;;;;;1999.90;999.90;;;;;;;;;;5061287;28;20232;-73
2022/04/30 13:47:08;;;;;;;1999.90;999.90;;;;;;;;;;5095599;27;20266;-73
2022/04/30 13:49:38;;;;;;;1999.90;999.90;;;;;;;;;;5062466;28;20307;-73
2022/04/30 13:52:06;;;;;;;1999.90;999.90;;;;;;;;;;5064534;28;20228;-73
2022/04/30 13:54:40;;;;;;;1999.90;999.90;;;;;;;;;;5079680;27;20301;-72
2022/04/30 13:57:09;;;;;;;1999.90;999.90;;;;;;;;;;5062724;28;20240;-72
2022/04/30 13:59:36;;;;;;;1999.90;999.90;;;;;;;;;;5065253;28;20665;-72
2022/04/30 14:02:04;;;;;;;1999.90;999.90;;;;;;;;;;5095572;27;20290;-75
2022/04/30 14:04:33;;;;;;;1999.90;999.90;;;;;;;;;;5094280;27;20618;-71
2022/04/30 14:07:03;;;;;;;1999.90;999.90;;;;;;;;;;5061137;28;20238;-72
2022/04/30 14:09:31;;;;;;;1999.90;999.90;;;;;;;;;;5071571;28;20348;-71
2022/04/30 14:11:59;;;;;;;1999.90;999.90;;;;;;;;;;5064527;28;20219;-74
2022/04/30 14:19:54;;;;;;;1999.90;999.90;;;;;;;;;;5077755;27;20912;-73
2022/04/30 14:22:23;;;;;;;1999.90;999.90;;;;;;;;;;5063620;28;21124;-73
2022/04/30 14:24:51;;;;;;;1999.90;999.90;;;;;;;;;;5064446;28;20232;-72
2022/04/30 14:27:18;;;;;;;1999.90;999.90;;;;;;;;;;5063613;28;20227;-71
2022/04/30 14:29:47;;;;;;;1999.90;999.90;;;;;;;;;;5061891;28;20236;-72
2022/04/30 14:32:15;;;;;;;1999.90;999.90;;;;;;;;;;5065480;28;20234;-73
2022/04/30 14:34:43;;;;;;;1999.90;999.90;;;;;;;;;;5098168;27;20255;-73
2022/04/30 14:37:10;;;;;;;1999.90;999.90;;;;;;;;;;5060582;28;20232;-74
2022/04/30 14:39:40;;;;;;;1999.90;999.90;;;;;;;;;;5064513;28;20251;-74